Time;durP1;ratioP1;P1;durP2;ratioP2;P2;SDS_P1;SDS_P2;PMS_P1;PMS_P2;Temp;Humidity;BMP_temperature;BMP_pressure;BME280_temperature;BME280_humidity;BME280_pressure;Samples;Min_cycle;Max_cycle;Signal;HPM_P1;HPM_P2
2023/10/23 00:15:23;;;;;;;3.20;2.17;;;5.50;99.90;;;;;;1815781;78;25303;-92
2023/10/23 01:06:00;;;;;;;1.53;1.23;;;5.60;99.90;;;;;;1931337;72;27171;-92
2023/10/23 01:36:19;;;;;;;1.70;1.60;;;5.60;99.90;;;;;;1964925;72;27451;-91
2023/10/23 01:53:03;;;;;;;2.57;2.00;;;5.50;99.90;;;;;;1942129;72;27189;-92
2023/10/23 02:13:27;;;;;;;0.93;0.80;;;5.70;99.90;;;;;;1959377;71;27146;-93
2023/10/23 02:45:13;;;;;;;1.83;1.60;;;5.60;99.90;;;;;;1868730;74;27118;-91
2023/10/23 03:30:46;;;;;;;2.07;1.90;;;5.50;99.90;;;;;;1907778;73;26074;-92
2023/10/23 03:33:35;;;;;;;1.67;1.50;;;5.60;99.90;;;;;;1914842;73;25197;-92
2023/10/23 03:36:26;;;;;;;1.33;1.20;;;5.60;99.90;;;;;;1879830;75;25720;-93
2023/10/23 03:39:15;;;;;;;2.93;1.43;;;5.50;99.90;;;;;;1882399;74;25649;-93
2023/10/23 03:42:06;;;;;;;1.60;1.50;;;5.50;99.90;;;;;;1829328;76;25264;-93
2023/10/23 03:44:59;;;;;;;1.43;1.33;;;5.50;99.90;;;;;;1875098;74;25287;-93
2023/10/23 03:47:47;;;;;;;2.30;1.33;;;5.50;99.90;;;;;;1840030;76;25833;-93
2023/10/23 03:50:39;;;;;;;1.57;1.47;;;5.50;99.90;;;;;;1860475;75;25233;-93
2023/10/23 04:08:07;;;;;;;2.30;2.10;;;5.50;99.90;;;;;;1944243;73;31782;-93
2023/10/23 04:24:58;;;;;;;1.33;1.27;;;5.70;99.90;;;;;;1854306;75;27231;-93
2023/10/23 04:52:39;;;;;;;2.23;1.93;;;5.60;99.90;;;;;;1925547;74;27709;-92
2023/10/23 06:52:32;;;;;;;1.70;1.60;;;5.50;99.90;;;;;;1852581;76;27694;-93
2023/10/23 07:58:14;;;;;;;4.00;1.40;;;5.70;99.90;;;;;;1994631;71;32275;-94
2023/10/23 08:18:57;;;;;;;1.47;1.30;;;5.80;99.90;;;;;;1956503;72;26635;-93
2023/10/23 09:33:06;;;;;;;2.53;1.00;;;6.40;99.90;;;;;;1857805;74;25303;-92
2023/10/23 09:40:36;;;;;;;0.97;0.90;;;6.40;99.90;;;;;;1853137;75;26556;-93
2023/10/23 09:57:07;;;;;;;0.80;0.80;;;6.50;99.90;;;;;;1936271;72;27133;-93
2023/10/23 10:03:13;;;;;;;3.00;1.30;;;6.50;99.90;;;;;;1958933;72;27081;-92
2023/10/23 10:06:09;;;;;;;1.47;1.17;;;6.50;99.90;;;;;;1935157;73;25182;-92
2023/10/23 10:09:38;;;;;;;1.30;1.20;;;6.50;99.90;;;;;;1935902;73;25267;-92
2023/10/23 10:12:38;;;;;;;1.60;0.90;;;6.60;99.90;;;;;;1932511;73;25327;-92
2023/10/23 10:16:07;;;;;;;2.20;1.07;;;6.70;99.90;;;;;;1929197;73;25775;-92
2023/10/23 10:19:18;;;;;;;1.23;1.20;;;6.60;99.90;;;;;;1922472;73;25210;-91
2023/10/23 10:29:26;;;;;;;1.30;1.17;;;6.90;99.90;;;;;;1938147;73;25294;-93
2023/10/23 10:32:30;;;;;;;1.47;1.10;;;7.10;99.90;;;;;;1915477;73;25301;-93
2023/10/23 10:35:35;;;;;;;2.50;1.30;;;7.10;99.90;;;;;;1938567;73;25337;-93
2023/10/23 10:38:42;;;;;;;2.07;1.10;;;7.00;99.90;;;;;;1919316;73;25200;-93
2023/10/23 10:44:26;;;;;;;1.63;1.53;;;7.00;99.90;;;;;;1944110;72;27030;-91
2023/10/23 10:47:16;;;;;;;1.17;1.07;;;7.00;99.90;;;;;;1933984;73;25203;-92
2023/10/23 10:50:11;;;;;;;1.70;1.03;;;7.00;99.90;;;;;;1941389;73;25240;-92
2023/10/23 10:53:03;;;;;;;2.03;0.90;;;6.90;99.90;;;;;;1870642;75;25646;-92
2023/10/23 10:56:08;;;;;;;1.17;1.00;;;6.90;99.90;;;;;;1884462;75;25233;-92
2023/10/23 10:58:54;;;;;;;1.40;1.10;;;6.90;99.90;;;;;;1899220;75;25236;-92
2023/10/23 11:01:46;;;;;;;29.30;1.90;;;6.80;99.90;;;;;;1891755;75;25307;-90
2023/10/23 11:04:38;;;;;;;1.23;1.13;;;6.90;99.90;;;;;;1901691;73;25278;-92
2023/10/23 11:07:27;;;;;;;3.50;1.40;;;7.00;99.90;;;;;;1900288;75;25238;-92
2023/10/23 11:46:17;;;;;;;1.20;1.07;;;7.00;99.90;;;;;;1908674;74;27177;-91
2023/10/23 11:52:03;;;;;;;3.47;1.10;;;7.10;99.90;;;;;;1944548;72;26547;-91
2023/10/23 11:54:52;;;;;;;3.33;1.50;;;7.00;99.90;;;;;;1928700;73;25221;-91
2023/10/23 11:57:41;;;;;;;2.30;1.40;;;7.00;99.90;;;;;;1920596;73;25692;-92
2023/10/23 12:00:33;;;;;;;3.40;1.50;;;7.00;99.90;;;;;;1923312;72;25250;-92
2023/10/23 12:52:43;;;;;;;3.67;1.70;;;7.10;99.90;;;;;;1941205;72;28143;-90
2023/10/23 12:59:08;;;;;;;2.40;1.70;;;7.10;99.90;;;;;;1921903;73;25640;-91
2023/10/23 13:02:39;;;;;;;1.93;1.67;;;7.00;99.90;;;;;;1934445;73;25295;-92
2023/10/23 13:06:06;;;;;;;2.73;1.80;;;7.10;99.90;;;;;;1921976;73;25230;-91
2023/10/23 13:09:11;;;;;;;7.23;2.43;;;7.20;99.90;;;;;;1923558;74;25608;-92
2023/10/23 13:16:18;;;;;;;4.30;1.57;;;7.10;99.90;;;;;;1920978;73;25696;-91
2023/10/23 13:20:06;;;;;;;2.23;2.00;;;7.10;99.90;;;;;;1916616;73;25700;-93
2023/10/23 13:22:53;;;;;;;2.00;1.20;;;7.00;99.90;;;;;;1923083;73;25685;-91
2023/10/23 13:25:42;;;;;;;1.77;1.43;;;6.90;99.90;;;;;;1921737;73;25207;-91
2023/10/23 13:28:34;;;;;;;2.17;1.60;;;6.80;99.90;;;;;;1919868;73;25162;-91
2023/10/23 13:34:17;;;;;;;5.03;1.70;;;6.90;99.90;;;;;;1953561;71;27103;-91
2023/10/23 13:37:08;;;;;;;4.50;1.90;;;6.90;99.90;;;;;;1948224;72;25140;-90
2023/10/23 13:42:41;;;;;;;4.70;1.60;;;6.90;99.90;;;;;;1924413;72;27051;-90
2023/10/23 13:48:21;;;;;;;4.60;1.90;;;6.80;99.90;;;;;;1952634;72;27592;-90
2023/10/23 13:51:11;;;;;;;5.13;1.87;;;6.70;99.90;;;;;;1908317;74;25235;-90
2023/10/23 13:54:01;;;;;;;4.30;1.90;;;6.80;99.90;;;;;;1923921;73;25202;-90
2023/10/23 13:56:51;;;;;;;4.27;1.97;;;6.80;99.90;;;;;;1923034;73;25279;-91
2023/10/23 13:59:41;;;;;;;5.27;1.93;;;6.80;99.90;;;;;;1927847;73;25218;-91
2023/10/23 14:02:29;;;;;;;4.67;2.00;;;6.90;99.90;;;;;;1916794;74;25268;-91
2023/10/23 14:05:18;;;;;;;3.57;1.73;;;6.90;99.90;;;;;;1927355;73;25306;-91
2023/10/23 14:08:11;;;;;;;5.63;1.80;;;6.80;99.90;;;;;;1915162;74;25175;-91
2023/10/23 14:11:00;;;;;;;4.77;1.50;;;6.90;99.90;;;;;;1920365;73;25232;-91
2023/10/23 14:13:49;;;;;;;3.37;1.87;;;6.90;99.90;;;;;;1905189;74;25297;-91
2023/10/23 14:16:38;;;;;;;5.40;2.10;;;6.90;99.90;;;;;;1863211;76;25340;-91
2023/10/23 14:19:28;;;;;;;3.10;1.87;;;6.90;99.90;;;;;;1870386;75;25267;-91
2023/10/23 14:25:11;;;;;;;5.37;2.03;;;6.80;99.90;;;;;;1944035;72;27018;-91
2023/10/23 14:28:01;;;;;;;3.13;1.97;;;6.90;99.90;;;;;;1896932;73;25779;-91
2023/10/23 14:30:52;;;;;;;4.73;1.60;;;6.90;99.90;;;;;;1871280;75;25741;-91
2023/10/23 14:33:40;;;;;;;3.43;1.90;;;7.00;99.90;;;;;;1886654;73;25203;-91
2023/10/23 14:36:34;;;;;;;2.97;1.93;;;7.00;99.90;;;;;;1892810;75;25263;-91
2023/10/23 14:39:26;;;;;;;5.90;2.53;;;7.00;99.90;;;;;;1890660;75;25277;-90
2023/10/23 14:42:15;;;;;;;4.30;2.03;;;7.00;99.90;;;;;;1884312;75;25726;-90
2023/10/23 14:45:07;;;;;;;5.83;2.23;;;7.00;99.90;;;;;;1872226;76;25180;-91
2023/10/23 14:47:56;;;;;;;3.77;2.00;;;6.90;99.90;;;;;;1870922;75;25171;-91
2023/10/23 14:50:44;;;;;;;2.67;2.07;;;6.90;99.90;;;;;;1873069;75;25220;-91
2023/10/23 14:53:32;;;;;;;7.47;2.40;;;6.90;99.90;;;;;;1874796;76;25619;-92
2023/10/23 14:56:22;;;;;;;7.50;2.20;;;6.90;99.90;;;;;;1872252;76;25280;-91
2023/10/23 14:59:12;;;;;;;3.50;2.30;;;7.00;99.90;;;;;;1876026;76;26348;-92
2023/10/23 15:05:13;;;;;;;3.03;2.07;;;7.00;99.90;;;;;;1950052;72;27012;-91
2023/10/23 15:08:33;;;;;;;8.00;3.73;;;7.00;99.90;;;;;;1932209;73;25309;-92
2023/10/23 15:11:24;;;;;;;8.00;3.20;;;7.10;99.90;;;;;;1897944;75;25216;-91
2023/10/23 15:14:12;;;;;;;6.87;2.93;;;7.20;99.90;;;;;;1889287;75;25635;-91
2023/10/23 15:20:17;;;;;;;4.57;2.20;;;7.20;99.90;;;;;;1892452;75;25244;-91
2023/10/23 15:23:09;;;;;;;3.37;2.10;;;7.10;99.90;;;;;;1876975;76;25697;-91
2023/10/23 15:26:01;;;;;;;6.63;2.50;;;7.00;99.90;;;;;;1885227;75;25342;-91
2023/10/23 15:28:53;;;;;;;4.37;2.47;;;7.00;99.90;;;;;;1895215;75;25211;-91
2023/10/23 15:31:42;;;;;;;4.57;2.80;;;7.00;99.90;;;;;;1852574;76;25258;-91
2023/10/23 15:34:32;;;;;;;9.30;3.07;;;7.00;99.90;;;;;;1862814;76;25343;-90
2023/10/23 15:37:22;;;;;;;7.53;3.23;;;7.00;99.90;;;;;;1900046;75;25664;-92
2023/10/23 15:40:12;;;;;;;9.77;3.90;;;7.00;99.90;;;;;;1894962;75;25305;-90
2023/10/23 15:43:02;;;;;;;8.83;4.60;;;7.00;99.90;;;;;;1893462;75;25263;-91
2023/10/23 15:48:40;;;;;;;6.13;3.63;;;7.00;99.90;;;;;;1955658;72;26723;-91
2023/10/23 15:51:29;;;;;;;8.10;4.07;;;7.00;99.90;;;;;;1919202;73;25207;-91
2023/10/23 15:54:17;;;;;;;8.73;4.30;;;7.00;99.90;;;;;;1930695;73;25186;-92
2023/10/23 15:57:06;;;;;;;9.90;5.07;;;7.00;99.90;;;;;;1918414;73;25246;-90
2023/10/23 15:59:55;;;;;;;8.23;4.80;;;7.00;99.90;;;;;;1925498;73;25210;-90
2023/10/23 16:02:46;;;;;;;10.27;4.73;;;7.10;99.90;;;;;;1925848;73;25217;-91
2023/10/23 16:05:34;;;;;;;7.27;4.53;;;7.00;99.90;;;;;;1919103;73;25227;-90
2023/10/23 16:08:23;;;;;;;7.87;3.80;;;7.00;99.90;;;;;;1932786;73;25218;-91
2023/10/23 16:11:12;;;;;;;7.10;3.63;;;6.90;99.90;;;;;;1939724;73;25266;-90
2023/10/23 16:14:03;;;;;;;10.70;3.40;;;6.90;99.90;;;;;;1919521;73;25226;-92
2023/10/23 16:16:54;;;;;;;6.73;3.20;;;6.90;99.90;;;;;;1920628;73;25713;-92
2023/10/23 16:19:43;;;;;;;7.07;3.63;;;6.80;99.90;;;;;;1931615;73;25344;-91
2023/10/23 16:22:32;;;;;;;6.33;4.30;;;6.90;99.90;;;;;;1918308;73;25818;-91
2023/10/23 16:25:21;;;;;;;7.47;3.77;;;6.90;99.90;;;;;;1924499;73;25299;-91
2023/10/23 16:28:12;;;;;;;8.00;4.17;;;6.80;99.90;;;;;;1929029;73;25808;-91
2023/10/23 16:44:09;;;;;;;8.83;3.80;;;6.80;99.90;;;;;;1906495;74;27574;-90
2023/10/23 16:51:30;;;;;;;14.33;5.23;;;6.90;99.90;;;;;;1977421;71;27500;-91
2023/10/23 16:54:20;;;;;;;10.63;4.13;;;6.90;99.90;;;;;;2020613;70;25222;-91
2023/10/23 16:57:13;;;;;;;7.17;4.13;;;6.80;99.90;;;;;;2023411;69;25250;-91
2023/10/23 17:00:05;;;;;;;7.27;4.10;;;6.80;99.90;;;;;;2028295;69;25250;-91
2023/10/23 17:02:54;;;;;;;12.57;4.73;;;6.80;99.90;;;;;;2016578;70;25259;-91
2023/10/23 17:05:45;;;;;;;13.20;6.07;;;6.80;99.90;;;;;;2016051;69;25699;-91
2023/10/23 17:08:36;;;;;;;18.43;5.37;;;6.70;99.90;;;;;;2019234;69;25799;-91
2023/10/23 17:11:26;;;;;;;12.83;4.63;;;6.70;99.90;;;;;;2026643;69;25224;-91
2023/10/23 17:14:15;;;;;;;11.57;4.77;;;6.60;99.90;;;;;;2028305;70;25240;-91
2023/10/23 17:17:06;;;;;;;15.60;5.77;;;6.80;99.90;;;;;;2023190;70;25143;-91
2023/10/23 17:19:59;;;;;;;14.53;6.20;;;6.80;99.90;;;;;;2018345;69;25232;-92
2023/10/23 17:22:48;;;;;;;20.43;8.53;;;6.70;99.90;;;;;;2025183;69;25177;-91
2023/10/23 17:25:43;;;;;;;18.77;7.40;;;6.70;99.90;;;;;;2032344;69;25172;-91
2023/10/23 17:31:48;;;;;;;13.00;7.50;;;6.60;99.90;;;;;;1980555;71;26865;-90
2023/10/23 17:34:38;;;;;;;18.10;7.63;;;6.60;99.90;;;;;;1967289;72;25323;-91
2023/10/23 17:37:29;;;;;;;11.23;5.83;;;6.70;99.90;;;;;;2035256;69;25582;-92
2023/10/23 17:44:47;;;;;;;10.13;5.30;;;6.50;99.90;;;;;;1984644;71;27368;-90
2023/10/23 17:47:40;;;;;;;13.17;5.87;;;6.60;99.90;;;;;;2006776;70;25226;-90
2023/10/23 17:50:35;;;;;;;11.93;5.13;;;6.60;99.90;;;;;;2002947;70;25190;-90
2023/10/23 17:53:28;;;;;;;9.90;4.50;;;6.50;99.90;;;;;;2003826;70;25221;-91
2023/10/23 17:56:36;;;;;;;9.53;4.70;;;6.50;99.90;;;;;;2020421;70;25226;-90
2023/10/23 17:59:49;;;;;;;10.43;4.40;;;6.50;99.90;;;;;;2022409;70;25129;-91
2023/10/23 18:02:49;;;;;;;8.47;4.30;;;6.60;99.90;;;;;;2002165;70;25245;-90
2023/10/23 18:05:42;;;;;;;10.10;5.07;;;6.60;99.90;;;;;;2009211;69;25332;-90
2023/10/23 18:12:57;;;;;;;11.73;4.87;;;6.60;99.90;;;;;;1994080;71;28786;-89
2023/10/23 18:15:47;;;;;;;10.30;6.17;;;6.60;99.90;;;;;;1983959;72;25184;-89
2023/10/23 18:18:38;;;;;;;14.47;7.17;;;6.70;99.90;;;;;;2068833;69;25143;-89
2023/10/23 18:21:29;;;;;;;9.07;4.90;;;6.70;99.90;;;;;;2064822;68;25215;-90
2023/10/23 18:24:21;;;;;;;12.00;4.73;;;6.80;99.90;;;;;;2041082;68;25728;-89
2023/10/23 18:27:11;;;;;;;8.13;4.37;;;6.60;99.90;;;;;;2053411;68;25663;-89
2023/10/23 18:33:57;;;;;;;9.27;3.77;;;6.70;99.90;;;;;;1957039;72;26784;-89
2023/10/23 18:36:48;;;;;;;9.17;4.90;;;6.80;99.90;;;;;;1987780;71;25208;-89
2023/10/23 18:39:37;;;;;;;8.87;4.53;;;6.80;99.90;;;;;;1994640;71;25692;-90
2023/10/23 18:42:28;;;;;;;18.77;8.90;;;6.80;99.90;;;;;;1959774;72;25245;-90
2023/10/23 18:45:17;;;;;;;14.20;5.80;;;6.80;99.90;;;;;;1957756;72;25266;-89
2023/10/23 18:48:07;;;;;;;6.50;4.77;;;6.80;99.90;;;;;;1983259;71;25205;-90
2023/10/23 18:51:01;;;;;;;10.10;3.73;;;6.80;99.90;;;;;;1976033;71;25206;-90
2023/10/23 18:53:50;;;;;;;7.53;3.77;;;6.70;99.90;;;;;;1963562;72;25717;-89
2023/10/23 18:59:47;;;;;;;7.07;3.73;;;6.60;99.90;;;;;;1957609;71;27034;-91
2023/10/23 19:02:56;;;;;;;7.97;4.13;;;6.60;99.90;;;;;;1909782;73;25261;-89
2023/10/23 19:05:51;;;;;;;5.70;3.90;;;6.60;99.90;;;;;;1909211;74;25205;-89
2023/10/23 19:08:42;;;;;;;8.83;4.07;;;6.60;99.90;;;;;;1919691;73;25226;-89
2023/10/23 19:11:33;;;;;;;7.97;4.50;;;6.50;99.90;;;;;;1904527;72;25168;-91
2023/10/23 19:14:24;;;;;;;8.87;5.00;;;6.50;99.90;;;;;;1921018;72;25719;-89
2023/10/23 19:17:15;;;;;;;9.63;5.87;;;6.50;99.90;;;;;;1924953;73;25201;-89
2023/10/23 19:20:08;;;;;;;5.93;4.23;;;6.50;99.90;;;;;;1952062;72;25254;-89
2023/10/23 19:26:06;;;;;;;5.63;3.60;;;6.50;99.90;;;;;;1943195;72;27406;-90
2023/10/23 19:28:56;;;;;;;9.27;2.83;;;6.40;99.90;;;;;;1928221;73;26636;-90
2023/10/23 19:31:51;;;;;;;5.47;4.03;;;6.40;99.90;;;;;;1929208;73;25194;-90
2023/10/23 19:34:46;;;;;;;9.57;5.80;;;6.40;99.90;;;;;;1922698;73;25285;-90
2023/10/23 19:45:28;;;;;;;4.47;3.10;;;6.40;99.90;;;;;;1978828;71;27144;-89
2023/10/23 19:48:23;;;;;;;4.27;3.00;;;6.40;99.90;;;;;;1954480;72;25160;-89
2023/10/23 19:51:16;;;;;;;3.57;2.73;;;6.40;99.90;;;;;;2034778;69;25170;-89
2023/10/23 19:54:18;;;;;;;4.17;3.10;;;6.40;99.90;;;;;;2037402;69;25158;-89
2023/10/23 19:57:10;;;;;;;5.13;3.87;;;6.40;99.90;;;;;;2054815;69;25284;-90
2023/10/23 20:00:01;;;;;;;5.83;4.70;;;6.40;99.90;;;;;;2040304;69;25243;-89
2023/10/23 20:03:07;;;;;;;6.00;4.13;;;6.40;99.90;;;;;;2043157;69;25202;-89
2023/10/23 20:05:57;;;;;;;5.90;3.97;;;6.40;99.90;;;;;;2037374;69;25114;-89
2023/10/23 20:08:46;;;;;;;13.73;8.13;;;6.40;99.90;;;;;;2048080;69;25236;-90
2023/10/23 20:11:44;;;;;;;15.50;7.20;;;6.40;99.90;;;;;;2042755;69;25738;-90
2023/10/23 20:14:33;;;;;;;5.57;3.87;;;6.30;99.90;;;;;;2038270;69;25300;-90
2023/10/23 20:17:23;;;;;;;9.13;4.70;;;6.40;99.90;;;;;;1968988;72;25145;-90
2023/10/23 20:20:13;;;;;;;7.23;4.23;;;6.30;99.90;;;;;;2038849;69;25144;-90
2023/10/23 20:23:03;;;;;;;6.13;3.77;;;6.40;99.90;;;;;;2040467;69;25343;-90
2023/10/23 20:29:38;;;;;;;4.63;3.10;;;6.40;99.90;;;;;;1993766;71;26631;-89
2023/10/23 20:32:28;;;;;;;4.87;3.23;;;6.30;99.90;;;;;;1953441;72;25752;-89
2023/10/23 20:35:17;;;;;;;4.37;3.30;;;6.40;99.90;;;;;;2032698;69;25644;-91
2023/10/23 20:38:06;;;;;;;3.40;2.77;;;6.30;99.90;;;;;;2038058;69;25195;-91
2023/10/23 20:57:40;;;;;;;9.70;3.33;;;6.40;99.90;;;;;;1975427;71;27539;-89
2023/10/23 21:00:30;;;;;;;9.63;4.30;;;6.40;99.90;;;;;;1912909;74;25230;-90
2023/10/23 21:03:19;;;;;;;16.67;5.27;;;6.40;99.90;;;;;;1924496;73;25312;-90
2023/10/23 21:06:08;;;;;;;6.73;4.47;;;6.40;99.90;;;;;;1917185;73;25284;-90
2023/10/23 21:08:58;;;;;;;7.23;3.30;;;6.30;99.90;;;;;;1926225;74;25208;-90
2023/10/23 21:11:47;;;;;;;6.53;3.60;;;6.40;99.90;;;;;;1887334;74;25425;-90
2023/10/23 21:14:46;;;;;;;5.93;3.70;;;6.30;99.90;;;;;;1869977;75;25750;-89
2023/10/23 21:17:36;;;;;;;5.67;3.50;;;6.30;99.90;;;;;;1853737;75;25268;-89
2023/10/23 21:20:26;;;;;;;10.77;4.37;;;6.30;99.90;;;;;;1919950;73;25771;-89
2023/10/23 21:23:15;;;;;;;9.00;4.90;;;6.40;99.90;;;;;;1912195;74;25234;-89
2023/10/23 21:26:06;;;;;;;8.57;4.40;;;6.30;99.90;;;;;;1935350;73;25747;-89
2023/10/23 22:45:11;;;;;;;5.63;3.00;;;6.20;99.90;;;;;;1879059;76;26626;-89
2023/10/23 22:50:54;;;;;;;7.43;3.27;;;6.30;99.90;;;;;;1950006;72;27195;-89
2023/10/23 23:07:22;;;;;;;5.50;2.90;;;6.30;99.90;;;;;;1984131;71;27184;-87
2023/10/23 23:23:59;;;;;;;10.73;3.47;;;6.30;99.90;;;;;;1996615;71;26978;-89
